Time;durP1;ratioP1;P1;durP2;ratioP2;P2;SDS_P1;SDS_P2;PMS_P1;PMS_P2;Temp;Humidity;BMP_temperature;BMP_pressure;BME280_temperature;BME280_humidity;BME280_pressure;Samples;Min_cycle;Max_cycle;Signal;HPM_P1;HPM_P2
2022/06/20 00:00:05;;;;;;;5.30;2.63;;;17.40;1.00;;;;;;5094811;28;20906;-85
2022/06/20 00:02:32;;;;;;;4.03;3.00;;;17.60;1.00;;;;;;5073401;28;20517;-87
2022/06/20 00:05:06;;;;;;;4.60;3.00;;;17.70;1.00;;;;;;5094204;28;20831;-87
2022/06/20 00:07:34;;;;;;;4.10;2.60;;;17.90;1.00;;;;;;5084439;28;20455;-87
2022/06/20 00:10:03;;;;;;;3.97;2.90;;;18.00;1.00;;;;;;5082907;28;20474;-86
2022/06/20 00:12:30;;;;;;;4.43;2.50;;;18.00;1.00;;;;;;5088495;28;20486;-87
2022/06/20 00:15:04;;;;;;;6.17;2.70;;;17.80;1.00;;;;;;5084567;28;20499;-86
2022/06/20 00:17:32;;;;;;;5.80;3.20;;;17.70;1.00;;;;;;5083601;28;20544;-86
2022/06/20 00:20:03;;;;;;;5.13;3.20;;;17.60;1.00;;;;;;5081758;28;20537;-86
2022/06/20 00:22:30;;;;;;;4.07;2.93;;;17.50;1.00;;;;;;5091525;28;21214;-86
2022/06/20 00:25:03;;;;;;;5.53;2.97;;;17.30;1.00;;;;;;5088014;28;20526;-85
2022/06/20 00:27:32;;;;;;;5.43;2.80;;;17.20;1.00;;;;;;5086416;28;20992;-85
2022/06/20 00:30:12;;;;;;;5.47;2.97;;;17.10;1.00;;;;;;5071195;28;20467;-86
2022/06/20 00:32:42;;;;;;;4.07;2.80;;;16.90;1.00;;;;;;5074809;28;20474;-85
2022/06/20 00:35:13;;;;;;;5.03;2.83;;;16.80;1.00;;;;;;5066577;28;20460;-86
2022/06/20 00:37:42;;;;;;;5.40;2.97;;;16.90;1.00;;;;;;5090730;28;20517;-85
2022/06/20 00:40:24;;;;;;;4.03;2.67;;;17.00;1.00;;;;;;5072186;28;20475;-86
2022/06/20 00:42:52;;;;;;;6.13;2.97;;;17.30;1.00;;;;;;5072674;28;20501;-86
2022/06/20 00:45:26;;;;;;;5.57;2.70;;;17.50;1.00;;;;;;5086469;28;21193;-86
2022/06/20 00:47:57;;;;;;;3.03;2.63;;;17.90;1.00;;;;;;5095906;28;20439;-87
2022/06/20 00:50:37;;;;;;;3.67;2.83;;;18.10;1.00;;;;;;5084678;28;20545;-85
2022/06/20 00:53:19;;;;;;;4.83;3.67;;;18.20;1.00;;;;;;5083758;28;20480;-87
2022/06/20 00:56:00;;;;;;;4.90;3.20;;;18.10;1.00;;;;;;5082844;28;20450;-85
2022/06/20 00:58:35;;;;;;;4.97;4.03;;;17.90;1.00;;;;;;5092282;28;20462;-86
2022/06/20 01:01:05;;;;;;;5.07;4.60;;;17.90;1.00;;;;;;5079152;28;21274;-87
2022/06/20 01:03:40;;;;;;;5.20;4.60;;;17.90;1.00;;;;;;5083709;28;20476;-85
2022/06/20 01:06:22;;;;;;;8.17;4.90;;;17.80;1.00;;;;;;5094458;28;20958;-85
2022/06/20 01:09:05;;;;;;;6.53;5.07;;;17.80;1.00;;;;;;5089503;28;20592;-85
2022/06/20 01:11:44;;;;;;;9.33;5.83;;;17.60;1.00;;;;;;5084649;28;20497;-84
2022/06/20 01:14:33;;;;;;;7.27;6.57;;;17.30;1.00;;;;;;5094071;28;20438;-85
2022/06/20 01:17:15;;;;;;;8.90;6.40;;;17.00;1.00;;;;;;5096249;27;21315;-83
2022/06/20 01:19:51;;;;;;;7.60;6.73;;;16.80;1.00;;;;;;5088452;28;20435;-85
2022/06/20 01:22:38;;;;;;;10.57;6.40;;;16.60;1.00;;;;;;5090795;28;20534;-85
2022/06/20 01:25:33;;;;;;;7.57;6.70;;;16.50;1.00;;;;;;5076587;28;20428;-83
2022/06/20 01:28:08;;;;;;;10.23;7.20;;;16.50;1.00;;;;;;5093144;28;20959;-84
2022/06/20 01:30:47;;;;;;;8.60;7.00;;;16.60;1.00;;;;;;5089440;28;20543;-84
2022/06/20 01:33:18;;;;;;;8.60;7.20;;;16.70;1.00;;;;;;5077445;28;20439;-84
2022/06/20 01:38:37;;;;;;;9.60;7.70;;;16.50;1.00;;;;;;5091218;28;20443;-84
2022/06/20 01:43:59;;;;;;;9.67;7.10;;;16.70;1.00;;;;;;5083094;28;20427;-84
2022/06/20 01:46:40;;;;;;;9.47;7.10;;;16.70;1.00;;;;;;5089574;28;20458;-84
2022/06/20 01:49:19;;;;;;;10.30;8.00;;;16.70;1.00;;;;;;5089011;28;20442;-84
2022/06/20 01:51:56;;;;;;;9.37;8.00;;;16.70;1.00;;;;;;5093293;28;21298;-84
2022/06/20 01:57:36;;;;;;;8.40;6.40;;;16.60;1.00;;;;;;5085890;28;20901;-86
2022/06/20 02:03:28;;;;;;;8.40;5.60;;;16.50;1.00;;;;;;5072679;28;20456;-86
2022/06/20 02:05:59;;;;;;;6.43;5.50;;;16.60;1.00;;;;;;5077017;28;20431;-84
2022/06/20 02:08:36;;;;;;;8.97;5.13;;;16.60;1.00;;;;;;5094197;28;20481;-85
2022/06/20 02:11:23;;;;;;;6.67;5.50;;;16.70;1.00;;;;;;5053004;28;20496;-85
2022/06/20 02:13:54;;;;;;;9.73;5.90;;;16.90;1.00;;;;;;5071297;28;20517;-83
2022/06/20 02:16:39;;;;;;;7.90;5.50;;;16.90;1.00;;;;;;5058772;28;20467;-84
2022/06/20 02:19:09;;;;;;;8.17;5.40;;;16.80;1.00;;;;;;5070955;28;20443;-83
2022/06/20 02:21:38;;;;;;;6.33;5.57;;;17.00;1.00;;;;;;5061050;28;20438;-83
2022/06/20 02:24:10;;;;;;;7.23;5.50;;;17.10;1.00;;;;;;5045640;28;20492;-82
2022/06/20 02:26:40;;;;;;;6.87;5.60;;;17.20;1.00;;;;;;5024626;28;20424;-81
2022/06/20 02:32:18;;;;;;;6.57;5.73;;;17.20;1.00;;;;;;5056453;28;20435;-83
2022/06/20 02:34:58;;;;;;;6.90;6.20;;;17.20;1.00;;;;;;5042233;28;20417;-84
2022/06/20 02:37:27;;;;;;;8.10;5.17;;;17.00;1.00;;;;;;5048006;28;20439;-85
2022/06/20 02:42:49;;;;;;;5.73;4.70;;;17.00;1.00;;;;;;5045838;28;20554;-84
2022/06/20 02:45:20;;;;;;;5.97;5.33;;;17.10;1.00;;;;;;5050526;28;20476;-83
2022/06/20 02:48:00;;;;;;;8.33;5.47;;;17.20;1.00;;;;;;5054648;28;20487;-85
2022/06/20 02:50:45;;;;;;;6.43;4.77;;;17.20;1.00;;;;;;5053143;28;20479;-85
2022/06/20 02:53:28;;;;;;;6.73;5.10;;;17.10;1.00;;;;;;5027616;28;20465;-83
2022/06/20 02:55:58;;;;;;;6.83;4.57;;;17.00;1.00;;;;;;5018397;28;20429;-82
2022/06/20 02:58:30;;;;;;;8.97;6.07;;;16.90;1.00;;;;;;5039687;28;20999;-82
2022/06/20 03:01:06;;;;;;;8.43;4.70;;;16.90;1.00;;;;;;5050702;28;20475;-83
2022/06/20 03:03:50;;;;;;;5.43;4.90;;;16.80;1.00;;;;;;5056569;28;20984;-81
2022/06/20 03:06:37;;;;;;;5.57;4.73;;;16.80;1.00;;;;;;5015242;28;20458;-82
2022/06/20 03:09:08;;;;;;;10.87;5.80;;;16.80;1.00;;;;;;5043403;28;20518;-82
2022/06/20 03:11:37;;;;;;;6.73;5.30;;;16.60;1.00;;;;;;5040161;28;20475;-83
2022/06/20 03:14:08;;;;;;;7.60;5.43;;;16.50;1.00;;;;;;5068565;28;20459;-82
2022/06/20 03:16:35;;;;;;;5.83;4.97;;;16.50;1.00;;;;;;5047375;28;20515;-82
2022/06/20 03:19:04;;;;;;;6.73;4.80;;;16.50;1.00;;;;;;5041568;28;20579;-82
2022/06/20 03:21:36;;;;;;;7.37;5.40;;;16.40;1.00;;;;;;5046426;28;20481;-82
2022/06/20 03:24:03;;;;;;;10.43;5.90;;;16.30;1.00;;;;;;5039119;28;20477;-82
2022/06/20 03:26:30;;;;;;;7.10;5.80;;;16.20;1.00;;;;;;5046305;28;20460;-82
2022/06/20 03:29:05;;;;;;;6.83;5.70;;;16.10;1.00;;;;;;5036599;28;20465;-82
2022/06/20 03:31:32;;;;;;;7.33;5.97;;;16.20;1.00;;;;;;5040680;28;20919;-82
2022/06/20 03:34:03;;;;;;;8.07;5.60;;;16.20;1.00;;;;;;5049008;28;20439;-83
2022/06/20 03:36:31;;;;;;;6.33;5.70;;;16.30;1.00;;;;;;5056190;28;20460;-83
2022/06/20 03:38:58;;;;;;;7.60;6.00;;;16.30;1.00;;;;;;5065361;28;20476;-82
2022/06/20 03:41:28;;;;;;;6.40;5.30;;;16.40;1.00;;;;;;5042643;28;20487;-83
2022/06/20 03:44:01;;;;;;;6.70;6.00;;;16.40;1.00;;;;;;5046830;28;20858;-84
2022/06/20 03:46:32;;;;;;;11.80;7.00;;;16.40;1.00;;;;;;5059902;28;20487;-82
2022/06/20 03:49:05;;;;;;;7.20;5.50;;;16.50;1.00;;;;;;5059939;28;20461;-82
2022/06/20 03:51:39;;;;;;;6.40;5.30;;;16.50;1.00;;;;;;5051812;28;20503;-84
2022/06/20 03:54:19;;;;;;;5.77;4.87;;;16.40;1.00;;;;;;5061314;28;20436;-84
2022/06/20 03:56:54;;;;;;;8.60;5.30;;;16.20;1.00;;;;;;5057825;28;20613;-83
2022/06/20 04:02:19;;;;;;;6.40;5.07;;;16.20;1.00;;;;;;5050639;28;20510;-84
2022/06/20 04:05:03;;;;;;;5.63;5.07;;;16.20;1.00;;;;;;5061130;28;20463;-83
2022/06/20 04:07:43;;;;;;;6.33;4.80;;;16.20;1.00;;;;;;5068046;28;20463;-84
2022/06/20 04:13:11;;;;;;;6.83;5.17;;;16.10;1.00;;;;;;5068701;28;20530;-85
2022/06/20 04:16:03;;;;;;;11.60;6.20;;;16.10;1.00;;;;;;5054480;28;20470;-85
2022/06/20 04:18:51;;;;;;;8.20;6.50;;;16.10;1.00;;;;;;5073719;28;20498;-85
2022/06/20 04:21:32;;;;;;;7.90;5.33;;;16.10;1.00;;;;;;5061124;28;20514;-86
2022/06/20 04:27:00;;;;;;;8.00;5.20;;;16.10;1.00;;;;;;5065349;28;20967;-74
2022/06/20 04:29:36;;;;;;;6.30;4.47;;;16.20;1.00;;;;;;5058164;28;20451;-75
2022/06/20 04:32:13;;;;;;;10.10;5.87;;;16.20;1.00;;;;;;5058703;28;20897;-75
2022/06/20 04:34:45;;;;;;;6.80;5.43;;;16.40;1.00;;;;;;5063099;28;20440;-75
2022/06/20 04:37:20;;;;;;;8.13;6.27;;;16.60;1.00;;;;;;5061079;28;20472;-77
2022/06/20 04:39:53;;;;;;;5.87;5.17;;;16.60;1.00;;;;;;5070777;28;20467;-77
2022/06/20 04:42:28;;;;;;;11.53;6.20;;;16.70;1.00;;;;;;5069496;28;20587;-80
2022/06/20 04:45:01;;;;;;;7.10;4.80;;;16.80;1.00;;;;;;5067314;28;20454;-78
2022/06/20 04:47:40;;;;;;;7.60;4.87;;;16.90;1.00;;;;;;5060560;28;20450;-76
2022/06/20 04:50:14;;;;;;;6.63;5.00;;;17.00;1.00;;;;;;5043495;28;20452;-77
2022/06/20 04:52:40;;;;;;;6.53;4.90;;;16.90;1.00;;;;;;5049055;28;20494;-76
2022/06/20 04:55:17;;;;;;;7.93;4.70;;;16.70;1.00;;;;;;5050045;28;20523;-76
2022/06/20 04:57:46;;;;;;;7.00;5.13;;;16.70;1.00;;;;;;5039110;28;20576;-77
2022/06/20 05:00:21;;;;;;;7.90;4.77;;;16.70;1.00;;;;;;5039379;28;20472;-78
2022/06/20 05:02:50;;;;;;;6.20;5.20;;;16.70;1.00;;;;;;5060857;28;20474;-77
2022/06/20 05:05:22;;;;;;;5.73;5.23;;;16.60;1.00;;;;;;5058474;28;20443;-78
2022/06/20 05:07:50;;;;;;;8.20;7.40;;;16.50;1.00;;;;;;5057572;28;20444;-76
2022/06/20 05:10:30;;;;;;;7.00;6.30;;;16.50;1.00;;;;;;5059170;28;20484;-77
2022/06/20 05:13:06;;;;;;;7.77;4.97;;;16.40;1.00;;;;;;5043385;28;20559;-76
2022/06/20 05:15:42;;;;;;;7.20;5.37;;;16.30;1.00;;;;;;5061085;28;20521;-78
2022/06/20 05:18:19;;;;;;;12.33;11.13;;;16.30;1.00;;;;;;5037262;28;20459;-78
2022/06/20 05:20:47;;;;;;;10.87;8.00;;;16.20;1.00;;;;;;5063616;28;20475;-79
2022/06/20 05:23:19;;;;;;;10.43;7.30;;;16.20;1.00;;;;;;5056811;28;20558;-77
2022/06/20 05:25:49;;;;;;;8.17;6.90;;;16.10;1.00;;;;;;5060280;28;20910;-79
2022/06/20 05:28:24;;;;;;;11.53;7.20;;;16.00;1.00;;;;;;5060805;28;20429;-79
2022/06/20 05:30:52;;;;;;;9.03;6.77;;;15.90;1.00;;;;;;5071291;28;20546;-78
2022/06/20 05:33:28;;;;;;;8.97;6.70;;;15.80;1.00;;;;;;5071848;28;20497;-78
2022/06/20 05:36:13;;;;;;;7.77;6.50;;;15.70;1.00;;;;;;5064023;28;20506;-78
2022/06/20 05:38:46;;;;;;;9.27;6.50;;;15.60;1.00;;;;;;5070351;28;20459;-78
2022/06/20 05:41:20;;;;;;;8.13;6.80;;;15.50;1.00;;;;;;5060004;28;21367;-77
2022/06/20 05:43:47;;;;;;;11.63;8.10;;;15.40;1.00;;;;;;5066065;28;23372;-76
2022/06/20 05:46:24;;;;;;;10.77;8.47;;;15.30;1.00;;;;;;5067822;28;20468;-76
2022/06/20 05:49:00;;;;;;;11.93;8.53;;;15.30;1.00;;;;;;5061618;28;20455;-79
2022/06/20 05:51:29;;;;;;;11.60;9.40;;;15.30;1.00;;;;;;5070817;28;20528;-77
2022/06/20 05:54:01;;;;;;;10.27;8.90;;;15.30;1.00;;;;;;5057842;28;20484;-77
2022/06/20 05:56:41;;;;;;;11.67;9.03;;;15.30;1.00;;;;;;5049661;28;20551;-76
2022/06/20 05:59:22;;;;;;;12.00;9.00;;;15.30;1.00;;;;;;5066248;28;20884;-78
2022/06/20 06:01:49;;;;;;;13.30;9.80;;;15.30;1.00;;;;;;5049248;28;20541;-79
2022/06/20 06:04:27;;;;;;;10.57;9.23;;;15.30;1.00;;;;;;5060137;28;20912;-78
2022/06/20 06:06:59;;;;;;;11.13;10.00;;;15.20;1.00;;;;;;5063468;28;21269;-78
2022/06/20 06:09:35;;;;;;;11.87;9.13;;;15.20;1.00;;;;;;5057062;28;20487;-78
2022/06/20 06:12:08;;;;;;;19.80;14.97;;;15.20;1.00;;;;;;5060734;28;20465;-78
2022/06/20 06:14:41;;;;;;;16.60;10.90;;;15.20;1.00;;;;;;5056736;28;20444;-78
2022/06/20 06:17:16;;;;;;;13.97;10.30;;;15.10;1.00;;;;;;5059928;28;20456;-78
2022/06/20 06:19:50;;;;;;;15.87;11.10;;;15.00;1.00;;;;;;5061446;28;20486;-77
2022/06/20 06:22:23;;;;;;;17.27;10.40;;;14.90;1.00;;;;;;5065771;28;20458;-79
2022/06/20 06:24:56;;;;;;;14.53;9.90;;;14.80;1.00;;;;;;5049084;28;21086;-77
2022/06/20 06:27:32;;;;;;;17.63;10.60;;;14.70;1.00;;;;;;5054028;28;20456;-78
2022/06/20 06:30:10;;;;;;;14.13;10.47;;;14.70;1.00;;;;;;5054368;28;20535;-78
2022/06/20 06:32:46;;;;;;;18.30;10.13;;;14.50;1.00;;;;;;5027847;28;20464;-77
2022/06/20 06:35:22;;;;;;;18.83;11.67;;;14.60;1.00;;;;;;5055334;28;20467;-77
2022/06/20 06:37:58;;;;;;;15.97;10.23;;;14.60;1.00;;;;;;5054886;28;20454;-79
2022/06/20 06:40:33;;;;;;;16.87;10.17;;;14.70;1.00;;;;;;5051394;28;20452;-77
2022/06/20 06:43:11;;;;;;;14.27;10.87;;;14.80;1.00;;;;;;5048276;28;20484;-77
2022/06/20 06:45:50;;;;;;;14.60;9.17;;;14.90;1.00;;;;;;5052104;28;20468;-76
2022/06/20 06:48:24;;;;;;;14.67;10.10;;;15.10;1.00;;;;;;5063465;28;21065;-78
2022/06/20 06:50:55;;;;;;;12.20;8.90;;;15.20;1.00;;;;;;5037646;28;20491;-78
2022/06/20 06:53:26;;;;;;;14.60;9.00;;;15.30;1.00;;;;;;5054846;28;20455;-76
2022/06/20 06:55:59;;;;;;;14.90;9.30;;;15.40;1.00;;;;;;5056297;28;20551;-77
2022/06/20 06:58:35;;;;;;;12.70;9.13;;;15.50;1.00;;;;;;5068382;28;20540;-77
2022/06/20 07:01:12;;;;;;;11.87;9.07;;;15.70;1.00;;;;;;5055960;28;20478;-78
2022/06/20 07:03:46;;;;;;;12.47;8.83;;;15.80;1.00;;;;;;5065004;28;20432;-77
2022/06/20 07:06:23;;;;;;;12.97;7.90;;;15.90;1.00;;;;;;5018539;28;20464;-77
2022/06/20 07:08:59;;;;;;;12.33;7.90;;;15.90;1.00;;;;;;5051059;28;21019;-75
2022/06/20 07:11:27;;;;;;;15.17;8.10;;;15.90;1.00;;;;;;5052612;28;20631;-77
2022/06/20 07:14:06;;;;;;;10.33;7.40;;;15.90;1.00;;;;;;5056697;28;20488;-77
2022/06/20 07:16:44;;;;;;;10.23;7.67;;;15.90;1.00;;;;;;5050547;28;20414;-76
2022/06/20 07:19:13;;;;;;;10.93;8.47;;;15.80;1.00;;;;;;5054082;28;20503;-76
2022/06/20 07:21:43;;;;;;;11.50;8.50;;;15.70;1.00;;;;;;5028648;28;21156;-76
2022/06/20 07:24:20;;;;;;;12.97;7.93;;;15.60;1.00;;;;;;5043700;28;20486;-76
2022/06/20 07:26:52;;;;;;;11.33;8.40;;;15.50;1.00;;;;;;5083060;28;20562;-77
2022/06/20 07:29:29;;;;;;;10.40;7.10;;;15.60;1.00;;;;;;5068765;28;20428;-77
2022/06/20 07:32:05;;;;;;;11.63;7.80;;;15.50;1.00;;;;;;5060448;28;20418;-77
2022/06/20 07:34:39;;;;;;;10.40;7.17;;;15.40;1.00;;;;;;5068975;28;20508;-76
2022/06/20 07:37:12;;;;;;;12.00;6.90;;;15.40;1.00;;;;;;5057022;28;21165;-76
2022/06/20 07:39:48;;;;;;;9.53;6.97;;;15.40;1.00;;;;;;5051852;28;20440;-77
2022/06/20 07:42:22;;;;;;;10.33;7.00;;;15.40;1.00;;;;;;5065911;28;20593;-76
2022/06/20 07:44:59;;;;;;;10.17;6.70;;;15.50;1.00;;;;;;5068120;28;20561;-78
2022/06/20 07:47:31;;;;;;;15.03;7.80;;;15.60;1.00;;;;;;5062277;28;20884;-77
2022/06/20 07:50:07;;;;;;;10.40;7.33;;;15.80;1.00;;;;;;5037416;28;20445;-77
2022/06/20 07:52:43;;;;;;;26.27;18.20;;;15.90;1.00;;;;;;5067169;28;20456;-76
2022/06/20 07:55:14;;;;;;;11.70;8.50;;;15.90;1.00;;;;;;5068487;28;20443;-75
2022/06/20 07:57:44;;;;;;;13.63;8.30;;;16.00;1.00;;;;;;5052234;28;21422;-79
2022/06/20 08:00:24;;;;;;;10.23;8.00;;;16.00;1.00;;;;;;5047911;28;20462;-76
2022/06/20 08:02:59;;;;;;;9.80;7.97;;;16.00;1.00;;;;;;5066819;28;20455;-77
2022/06/20 08:05:33;;;;;;;10.23;8.33;;;16.10;1.00;;;;;;5064590;28;20793;-78
2022/06/20 08:08:10;;;;;;;9.80;7.50;;;16.10;1.00;;;;;;5060349;28;20485;-78
2022/06/20 08:10:47;;;;;;;11.27;8.57;;;16.10;1.00;;;;;;5066951;28;21848;-77
2022/06/20 08:13:21;;;;;;;9.23;7.20;;;16.20;1.00;;;;;;5082841;28;20475;-80
2022/06/20 08:15:57;;;;;;;9.10;6.23;;;16.20;1.00;;;;;;5056274;28;20551;-76
2022/06/20 08:18:25;;;;;;;11.67;7.60;;;16.00;1.00;;;;;;5061698;28;20475;-77
2022/06/20 08:20:57;;;;;;;10.00;7.40;;;15.90;1.00;;;;;;5037749;28;20484;-77
2022/06/20 08:23:31;;;;;;;10.83;8.07;;;15.90;1.00;;;;;;5049870;28;20483;-78
2022/06/20 08:26:00;;;;;;;11.53;7.87;;;15.90;1.00;;;;;;5056194;28;20469;-77
2022/06/20 08:28:32;;;;;;;9.33;8.10;;;15.90;1.00;;;;;;5041084;28;20463;-78
2022/06/20 08:31:07;;;;;;;9.00;7.43;;;15.80;1.00;;;;;;5067547;28;20905;-79
2022/06/20 08:33:42;;;;;;;11.40;8.30;;;15.90;1.00;;;;;;5055281;28;21810;-77
2022/06/20 08:36:17;;;;;;;10.27;7.80;;;15.80;1.00;;;;;;5051627;28;20416;-76
2022/06/20 08:38:52;;;;;;;10.93;7.90;;;15.70;1.00;;;;;;5051356;28;20557;-76
2022/06/20 08:41:51;;;;;;;9.60;8.00;;;15.70;1.00;;;;;;5048433;28;20903;-78
2022/06/20 08:45:04;;;;;;;19.77;16.00;;;15.80;1.00;;;;;;5050000;28;20444;-76
2022/06/20 08:48:11;;;;;;;10.03;8.00;;;15.90;1.00;;;;;;5061904;28;20415;-77
2022/06/20 08:51:29;;;;;;;8.77;6.53;;;15.90;1.00;;;;;;5084155;28;20502;-77
2022/06/20 08:54:31;;;;;;;10.70;7.30;;;15.90;1.00;;;;;;5077824;28;20655;-77
2022/06/20 08:57:11;;;;;;;9.73;8.27;;;15.90;1.00;;;;;;5071997;28;20462;-76
2022/06/20 09:00:15;;;;;;;13.57;8.27;;;15.90;1.00;;;;;;5069334;28;20550;-77
2022/06/20 09:03:28;;;;;;;13.20;7.60;;;15.90;1.00;;;;;;5051254;28;20551;-76
2022/06/20 09:06:24;;;;;;;12.20;9.33;;;15.90;1.00;;;;;;5081887;28;20953;-78
2022/06/20 09:09:20;;;;;;;10.90;8.63;;;16.00;1.00;;;;;;5059113;28;20455;-77
2022/06/20 09:12:11;;;;;;;10.60;7.30;;;16.10;1.00;;;;;;5061942;28;20409;-75
2022/06/20 09:15:03;;;;;;;10.30;8.60;;;16.30;1.00;;;;;;5062428;28;20511;-75
2022/06/20 09:17:41;;;;;;;12.03;8.03;;;16.40;1.00;;;;;;5057427;28;20432;-75
2022/06/20 09:20:23;;;;;;;11.07;8.97;;;16.40;1.00;;;;;;5064308;28;20483;-76
2022/06/20 09:23:22;;;;;;;11.77;7.83;;;16.40;1.00;;;;;;5064919;28;20499;-77
2022/06/20 09:25:58;;;;;;;9.40;6.90;;;16.40;1.00;;;;;;5068564;28;20414;-75
2022/06/20 09:28:50;;;;;;;9.60;6.30;;;16.40;1.00;;;;;;5067494;28;20545;-74
2022/06/20 09:31:32;;;;;;;10.03;6.33;;;16.30;1.00;;;;;;5061479;28;21270;-76
2022/06/20 09:34:32;;;;;;;8.90;6.50;;;16.30;1.00;;;;;;5057299;28;20895;-75
2022/06/20 09:37:29;;;;;;;9.30;7.37;;;16.30;1.00;;;;;;5059473;28;20467;-76
2022/06/20 09:40:11;;;;;;;10.40;6.97;;;16.30;1.00;;;;;;5069937;28;20476;-76
2022/06/20 09:42:50;;;;;;;11.10;7.27;;;16.40;1.00;;;;;;5057204;28;20447;-74
2022/06/20 09:45:27;;;;;;;11.93;7.70;;;16.60;1.00;;;;;;5065993;28;20486;-78
2022/06/20 09:48:10;;;;;;;13.20;8.77;;;16.70;1.00;;;;;;5068357;28;20533;-77
2022/06/20 09:50:52;;;;;;;12.07;7.80;;;16.80;1.00;;;;;;5060514;28;20507;-77
2022/06/20 09:53:36;;;;;;;11.63;8.77;;;16.90;1.00;;;;;;5060280;28;20533;-78
2022/06/20 09:56:13;;;;;;;13.13;9.13;;;17.20;1.00;;;;;;5077616;28;20459;-78
2022/06/20 09:58:52;;;;;;;11.53;7.27;;;17.20;1.00;;;;;;5065650;28;20494;-78
2022/06/20 10:01:30;;;;;;;13.83;8.03;;;17.30;1.00;;;;;;5075960;28;20562;-76
2022/06/20 10:04:03;;;;;;;10.90;6.93;;;17.20;1.00;;;;;;5066212;28;20439;-78
2022/06/20 10:06:46;;;;;;;11.90;8.10;;;17.20;1.00;;;;;;5070799;28;20447;-77
2022/06/20 10:09:21;;;;;;;12.43;9.60;;;17.10;1.00;;;;;;5069491;28;22737;-76
2022/06/20 10:11:56;;;;;;;11.90;7.53;;;17.10;1.00;;;;;;5071829;28;20423;-75
2022/06/20 10:14:38;;;;;;;14.87;9.70;;;17.10;1.00;;;;;;5062097;28;20466;-76
2022/06/20 10:17:14;;;;;;;13.70;6.70;;;17.20;1.00;;;;;;5057018;28;20855;-75
2022/06/20 10:19:53;;;;;;;11.00;7.77;;;17.10;1.00;;;;;;5072222;28;20532;-76
2022/06/20 10:22:31;;;;;;;9.53;7.23;;;17.10;1.00;;;;;;5059859;28;20475;-74
2022/06/20 10:25:17;;;;;;;10.80;7.97;;;17.10;1.00;;;;;;5069893;28;20447;-77
2022/06/20 10:27:56;;;;;;;9.23;6.97;;;17.00;1.00;;;;;;5061250;28;20484;-75
2022/06/20 10:30:38;;;;;;;10.10;6.67;;;17.00;1.00;;;;;;5067619;28;20898;-76
2022/06/20 10:33:20;;;;;;;8.63;6.50;;;16.90;1.00;;;;;;5066492;28;20602;-76
2022/06/20 10:35:59;;;;;;;10.97;7.10;;;16.90;1.00;;;;;;5066171;28;20424;-76
2022/06/20 10:38:36;;;;;;;8.57;5.70;;;16.80;1.00;;;;;;5065888;28;20646;-76
2022/06/20 10:41:16;;;;;;;10.23;6.80;;;16.80;1.00;;;;;;5059388;28;20467;-76
2022/06/20 10:43:51;;;;;;;12.90;7.80;;;16.70;1.00;;;;;;5068563;28;20849;-77
2022/06/20 10:46:30;;;;;;;9.70;8.30;;;16.70;1.00;;;;;;5048102;28;20961;-77
2022/06/20 10:49:22;;;;;;;11.03;8.93;;;16.60;1.00;;;;;;5064571;28;20476;-75
2022/06/20 10:52:02;;;;;;;10.33;8.10;;;16.40;1.00;;;;;;5063194;28;20539;-76
2022/06/20 10:54:42;;;;;;;9.90;8.60;;;16.20;1.00;;;;;;5062630;28;20470;-76
2022/06/20 10:57:25;;;;;;;11.67;8.90;;;16.20;1.00;;;;;;5064873;28;20653;-75
2022/06/20 11:00:01;;;;;;;14.60;9.67;;;16.10;1.00;;;;;;5058556;28;20413;-77
2022/06/20 11:02:51;;;;;;;10.53;8.50;;;16.00;1.00;;;;;;5053969;28;20403;-76
2022/06/20 11:05:34;;;;;;;10.03;8.40;;;16.00;1.00;;;;;;5045048;28;20475;-78
2022/06/20 11:08:12;;;;;;;12.20;9.10;;;16.00;1.00;;;;;;5064394;28;20432;-76
2022/06/20 11:10:57;;;;;;;11.33;10.17;;;16.00;1.00;;;;;;5055675;28;20867;-77
2022/06/20 11:13:39;;;;;;;11.63;9.07;;;16.00;1.00;;;;;;5059944;28;20463;-78
2022/06/20 11:16:22;;;;;;;13.27;8.70;;;16.00;1.00;;;;;;5061261;28;20448;-77
2022/06/20 11:19:19;;;;;;;12.90;9.60;;;16.00;1.00;;;;;;5060423;28;20429;-76
2022/06/20 11:22:01;;;;;;;12.00;9.47;;;16.00;1.00;;;;;;5065016;28;20534;-77
2022/06/20 11:24:50;;;;;;;10.73;8.53;;;16.10;1.00;;;;;;5061221;28;20428;-77
2022/06/20 11:27:35;;;;;;;10.13;7.23;;;16.00;1.00;;;;;;5050300;28;20451;-78
2022/06/20 11:30:16;;;;;;;11.57;8.50;;;16.00;1.00;;;;;;5064806;28;20960;-76
2022/06/20 11:33:03;;;;;;;8.33;7.30;;;15.90;1.00;;;;;;5049373;28;21032;-78
2022/06/20 11:35:52;;;;;;;9.00;7.10;;;16.00;1.00;;;;;;5058687;28;20404;-76
2022/06/20 11:38:36;;;;;;;8.70;6.00;;;16.00;1.00;;;;;;5060191;28;20587;-75
2022/06/20 11:41:14;;;;;;;10.60;6.30;;;16.00;1.00;;;;;;5057464;28;20715;-78
2022/06/20 11:47:20;;;;;;;7.57;4.50;;;15.90;1.00;;;;;;5033453;28;20448;-77
2022/06/20 11:50:23;;;;;;;7.93;5.37;;;15.70;1.00;;;;;;5060887;28;20467;-76
2022/06/20 11:52:59;;;;;;;7.93;5.67;;;15.80;1.00;;;;;;5052180;28;20496;-76
2022/06/20 11:55:34;;;;;;;8.67;4.70;;;15.70;1.00;;;;;;5060902;28;20459;-78
2022/06/20 11:58:15;;;;;;;8.27;5.00;;;15.70;1.00;;;;;;5051081;28;20462;-79
2022/06/20 12:00:54;;;;;;;8.20;4.93;;;15.80;1.00;;;;;;5052560;28;20463;-81
2022/06/20 12:03:35;;;;;;;6.53;4.23;;;15.70;1.00;;;;;;5061719;28;20523;-80
2022/06/20 12:06:10;;;;;;;6.40;4.33;;;15.80;1.00;;;;;;5061155;28;20466;-79
2022/06/20 12:08:54;;;;;;;6.40;3.07;;;15.90;1.00;;;;;;5061131;28;20542;-78
2022/06/20 12:11:55;;;;;;;7.50;3.77;;;15.80;1.00;;;;;;5054333;28;20490;-76
2022/06/20 12:14:36;;;;;;;8.07;3.27;;;15.70;1.00;;;;;;5065239;28;20538;-77
2022/06/20 12:17:31;;;;;;;4.90;2.43;;;15.60;1.00;;;;;;5057134;28;20465;-77
2022/06/20 12:23:24;;;;;;;8.57;3.50;;;15.60;1.00;;;;;;5050109;28;20987;-76
2022/06/20 12:26:05;;;;;;;5.67;3.00;;;15.50;1.00;;;;;;5057403;28;20444;-78
2022/06/20 12:28:34;;;;;;;6.10;3.80;;;15.50;1.00;;;;;;5062699;28;20495;-78
2022/06/20 12:31:18;;;;;;;5.57;3.20;;;15.60;1.00;;;;;;5044584;28;20420;-75
2022/06/20 12:33:50;;;;;;;6.57;3.03;;;15.80;1.00;;;;;;5058550;28;20490;-77
2022/06/20 12:36:32;;;;;;;5.40;3.33;;;15.90;1.00;;;;;;5065544;28;20451;-77
2022/06/20 12:39:11;;;;;;;5.73;2.67;;;16.00;1.00;;;;;;5065129;28;20463;-76
2022/06/20 12:41:42;;;;;;;6.63;3.70;;;16.10;1.00;;;;;;5065886;28;20505;-77
2022/06/20 12:44:32;;;;;;;6.27;3.70;;;16.10;1.00;;;;;;5060120;28;20444;-76
2022/06/20 12:47:37;;;;;;;7.63;2.60;;;16.20;1.00;;;;;;5065108;28;20490;-76
2022/06/20 12:50:18;;;;;;;7.10;2.90;;;16.00;1.00;;;;;;5065525;27;20542;-75
2022/06/20 12:53:03;;;;;;;6.93;3.13;;;15.90;1.00;;;;;;5048909;28;20516;-76
2022/06/20 12:55:51;;;;;;;5.83;2.47;;;15.90;1.00;;;;;;5061396;28;20609;-76
2022/06/20 12:58:51;;;;;;;5.87;2.93;;;15.80;1.00;;;;;;5069505;28;20531;-75
2022/06/20 13:01:24;;;;;;;5.77;2.93;;;15.70;1.00;;;;;;5065851;28;20465;-75
2022/06/20 13:04:33;;;;;;;6.40;3.50;;;15.70;1.00;;;;;;5069115;28;20541;-76
2022/06/20 13:07:38;;;;;;;6.60;4.50;;;15.90;1.00;;;;;;5053343;28;20479;-76
2022/06/20 13:10:22;;;;;;;5.13;2.43;;;16.10;1.00;;;;;;5061994;28;20497;-76
2022/06/20 13:13:23;;;;;;;5.50;2.50;;;16.20;1.00;;;;;;5044589;28;20452;-76
2022/06/20 13:15:59;;;;;;;5.80;2.57;;;16.30;1.00;;;;;;5035032;28;20491;-76
2022/06/20 13:18:56;;;;;;;5.83;2.40;;;16.50;1.00;;;;;;5056446;28;20533;-80
2022/06/20 13:21:35;;;;;;;10.00;4.83;;;16.50;1.00;;;;;;5056336;28;20536;-78
2022/06/20 13:24:23;;;;;;;5.87;2.70;;;16.70;1.00;;;;;;5044499;28;20443;-77
2022/06/20 13:27:12;;;;;;;5.43;2.70;;;16.80;1.00;;;;;;5067002;28;20444;-76
2022/06/20 13:29:52;;;;;;;5.40;3.00;;;16.90;1.00;;;;;;5043966;28;20556;-78
2022/06/20 13:32:31;;;;;;;5.73;2.77;;;16.90;1.00;;;;;;5049225;28;20452;-77
2022/06/20 13:35:11;;;;;;;4.90;2.07;;;17.10;1.00;;;;;;5062097;28;21044;-78
2022/06/20 13:37:55;;;;;;;5.60;2.60;;;17.20;1.00;;;;;;5054948;28;20925;-78
2022/06/20 13:40:43;;;;;;;5.50;2.70;;;17.20;1.00;;;;;;5066722;28;20505;-77
2022/06/20 13:43:25;;;;;;;5.67;2.60;;;17.30;1.00;;;;;;5064860;28;20424;-79
2022/06/20 13:46:03;;;;;;;5.80;2.70;;;17.40;1.00;;;;;;5054036;28;20434;-76
2022/06/20 13:48:40;;;;;;;6.07;2.33;;;17.40;1.00;;;;;;5051601;28;20421;-77
2022/06/20 13:51:20;;;;;;;5.80;2.20;;;17.50;1.00;;;;;;5061954;28;20475;-78
2022/06/20 13:53:57;;;;;;;4.70;1.90;;;17.70;1.00;;;;;;5052607;28;20455;-79
2022/06/20 13:56:32;;;;;;;6.53;2.90;;;17.60;1.00;;;;;;5054510;28;20455;-77
2022/06/20 13:59:18;;;;;;;6.23;2.40;;;17.70;1.00;;;;;;5056273;28;20504;-77
2022/06/20 14:01:58;;;;;;;5.87;2.20;;;17.80;1.00;;;;;;5065425;28;20562;-78
2022/06/20 14:04:32;;;;;;;9.07;4.40;;;18.00;1.00;;;;;;5057077;28;20453;-77
2022/06/20 14:07:04;;;;;;;6.63;2.57;;;18.10;1.00;;;;;;5070602;28;20472;-78
2022/06/20 14:09:39;;;;;;;8.87;2.73;;;18.20;1.00;;;;;;5046797;28;20520;-78
2022/06/20 14:12:24;;;;;;;7.20;4.50;;;18.10;1.00;;;;;;5052814;28;20466;-78
2022/06/20 14:14:58;;;;;;;5.80;2.33;;;18.10;1.00;;;;;;5051325;28;20508;-77
2022/06/20 14:17:29;;;;;;;5.80;2.93;;;18.00;1.00;;;;;;5066990;28;20431;-78
2022/06/20 14:20:00;;;;;;;7.37;3.33;;;17.80;1.00;;;;;;5048578;28;20460;-79
2022/06/20 14:22:34;;;;;;;7.37;3.83;;;17.80;1.00;;;;;;5069029;28;20570;-78